Minnetonka Beach, MN (55361)

11:46 PM CST on December 28, 2014 (GMT -0600)
Carman Bay | Change Station
CLOSE
Current Station
Personal Weather Station
Location: Navarre, MN
Elevation: 935 ft
Nearby Weather Stations

Elev 935 ft 44.93 °N, 93.61 °W | Updated 2 seconds ago

Partly Cloudy
Partly Cloudy
10.3 °F
Feels Like 10 °F
N
2.3
Wind Variable Wind from SW
Gusts 2.3 mph

Today
High -- | Low -- °F
--% Chance of Precip.
Yesterday
High -- | Low -- °F
Precip. -- in
7:51 AM 4:40 PM
First Quarter, 55% visible
Pressure 30.39 in
Visibility 10.0 miles
Clouds Mostly Cloudy 10000 ft
Windchill 10 °F
Dew Point 2 °F
Humidity 67%
Rainfall 0.00 in
Snow Depth Not available.
UV 0 out of 12
Pollen .10 out of 12
Air Quality Not available.
Flu Activity Not available.
METAR KFCM 290453Z 02008KT 10SM BKN100 M11/M17 A3034 RMK AO2 SLP291 T11111167

More Conditions Fewer Conditions

Pressure 30.39 in
Visibility 10.0 miles
Clouds Mostly Cloudy 10000 ft
Windchill 10 °F
Dew Point 2 °F
Humidity 67%
Rainfall 0.00 in
Snow Depth Not available.
UV 0 out of 12
Pollen .10 out of 12
Air Quality Not available.
Flu Activity Not available.
METAR KFCM 290453Z 02008KT 10SM BKN100 M11/M17 A3034 RMK AO2 SLP291 T11111167

More Conditions Fewer Conditions

10-Day Weather Forecast

Almanac

Astronomy

Dec. 28, 2014 Rise Set
Actual Time
Civil Twilight
Nautical Twilight
Astronomical Twilight
Moon
Length of Visible Light
Length of Day
Tomorrow will be .
, % of the Moon is Illuminated

Today's Extremes

State Highs State Lows

Community

WunderPhotos

Upload Photos

1,781,542 photos uploaded!

WunderBlogs® & News

Nearby

Air Quality

  Air Quality AQ Index Pollutant
Not available.

Snow Depth

Station Depth Elevation

Earthquake Activity

City Distance Mag. Time & Date
Minimum magnitude displayed is 2.5.

Coastal Water Temperatures

Place Temperature

Nearby Weather Stations